KSGS

South St Paul Municipal-Richard E Fleming Field Airport

South St Paul, Minnesota, USA
METAR KSGS 212335Z AUTO 00000KT 10SM CLR 25/14 A2987 RMK AO2 T02450137
Observed Flight Rules
Jun-21 @ 23:35 UTC (17 minutes ago) Visual Flight Rules
Visibility Clouds
10 miles
  • Clear skies
Temperatures Readings
Current 25°C / 77°F
Dewpoint 14°C / 57°F
Humidity 51%
Altimeter 29.87" Hg
Pressure 1012 hPa
Elevation 250
METAR KSGS 212335Z AUTO 00000KT 10SM CLR 25/14 A2987 RMK AO2 T02450137
Observed Flight Rules
Jun-21 @ 23:35 UTC
(17 minutes ago)
VFR
Clouds
  • Clear skies
Temperature Dewpoint
25°C / 77°F 14°C / 57°F
Humidity Altimeter Pressure
51% 29.87" Hg 1012 hPa